createdAt,value
2022-11-02T00:00:25.536Z,100270.94
2022-11-02T00:03:12.369Z,100271.55
2022-11-02T00:05:39.452Z,100271.48
2022-11-02T00:08:06.550Z,100269.11
2022-11-02T00:10:33.368Z,100267.66
2022-11-02T00:13:00.464Z,100270.55
2022-11-02T00:15:31.805Z,100269.02
2022-11-02T00:20:31.463Z,100271.58
2022-11-02T00:23:02.705Z,100274.92
2022-11-02T00:25:31.066Z,100274.23
2022-11-02T00:27:58.319Z,100273.08
2022-11-02T00:30:25.371Z,100272.94
2022-11-02T00:32:53.167Z,100272.15
2022-11-02T00:35:20.272Z,100273.00
2022-11-02T00:37:47.205Z,100273.19
2022-11-02T00:40:14.832Z,100274.39
2022-11-02T00:42:41.696Z,100276.10
2022-11-02T00:45:10.758Z,100276.93
2022-11-02T00:47:38.040Z,100281.08
2022-11-02T00:50:05.302Z,100277.06
2022-11-02T00:52:32.776Z,100272.89
2022-11-02T00:55:00.109Z,100270.64
2022-11-02T00:57:27.712Z,100270.95
2022-11-02T00:59:54.832Z,100266.27
2022-11-02T01:02:21.836Z,100267.42
2022-11-02T01:04:48.837Z,100269.31
2022-11-02T01:07:15.749Z,100264.75
2022-11-02T01:09:42.620Z,100264.66
2022-11-02T01:12:09.743Z,100260.45
2022-11-02T01:14:37.759Z,100258.50
2022-11-02T01:17:04.865Z,100258.27
2022-11-02T01:19:31.776Z,100260.34
2022-11-02T01:21:58.881Z,100262.09
2022-11-02T01:24:25.825Z,100258.76
2022-11-02T01:26:54.204Z,100259.03
2022-11-02T01:29:21.584Z,100258.38
2022-11-02T01:31:48.643Z,100260.68
2022-11-02T01:34:17.692Z,100261.37
2022-11-02T01:36:48.112Z,100261.80
2022-11-02T01:39:17.645Z,100264.29
2022-11-02T01:41:45.261Z,100260.89
2022-11-02T01:44:30.187Z,100259.70
2022-11-02T01:47:00.683Z,100257.47
2022-11-02T01:49:29.030Z,100254.88
2022-11-02T01:52:04.179Z,100255.72
2022-11-02T01:54:38.003Z,100260.27
2022-11-02T01:57:07.910Z,100261.30
2022-11-02T01:59:40.554Z,100262.55
2022-11-02T02:02:12.843Z,100260.04
2022-11-02T02:04:40.359Z,100258.20
2022-11-02T02:07:07.158Z,100260.88
2022-11-02T02:09:35.965Z,100263.33
2022-11-02T02:12:02.829Z,100260.41
2022-11-02T02:14:29.901Z,100259.95
2022-11-02T02:17:09.195Z,100264.73
2022-11-02T02:19:49.388Z,100262.50
2022-11-02T02:22:54.455Z,100257.34
2022-11-02T02:25:48.102Z,100259.33
2022-11-02T02:28:21.183Z,100264.77
2022-11-02T02:30:52.460Z,100259.40
2022-11-02T02:33:28.330Z,100260.16
2022-11-02T02:36:00.825Z,100260.33
2022-11-02T02:38:33.840Z,100265.61
2022-11-02T02:41:11.129Z,100266.06
2022-11-02T02:43:43.159Z,100268.73
2022-11-02T02:46:14.699Z,100271.05
2022-11-02T02:48:44.944Z,100268.41
2022-11-02T02:51:16.913Z,100270.53
2022-11-02T02:53:48.455Z,100272.45
2022-11-02T02:56:20.061Z,100273.31
2022-11-02T02:58:52.847Z,100273.52
2022-11-02T03:01:21.057Z,100271.40
2022-11-02T03:03:48.312Z,100271.37
2022-11-02T03:06:21.202Z,100269.09
2022-11-02T03:09:04.923Z,100273.02
2022-11-02T03:11:33.949Z,100270.06
2022-11-02T03:14:22.912Z,100277.52
2022-11-02T03:17:04.350Z,100276.79
2022-11-02T03:19:43.222Z,100267.89
2022-11-02T03:22:22.994Z,100266.36
2022-11-02T03:25:00.337Z,100273.64
2022-11-02T03:27:36.874Z,100270.09
2022-11-02T03:30:09.698Z,100270.58
2022-11-02T03:32:42.171Z,100274.21
2022-11-02T03:35:16.669Z,100274.85
2022-11-02T03:37:48.012Z,100272.19
2022-11-02T03:40:20.372Z,100277.50
2022-11-02T03:42:49.368Z,100277.73
2022-11-02T03:45:19.943Z,100283.64
2022-11-02T03:47:53.316Z,100284.36
2022-11-02T03:50:24.491Z,100288.20
2022-11-02T03:52:55.506Z,100291.20
2022-11-02T03:55:27.299Z,100285.25
2022-11-02T03:57:55.371Z,100288.27
2022-11-02T04:00:29.222Z,100291.20
2022-11-02T04:03:04.024Z,100294.47
2022-11-02T04:05:34.355Z,100295.62
2022-11-02T04:08:24.612Z,100295.84
2022-11-02T04:11:14.375Z,100298.17
2022-11-02T04:14:00.072Z,100298.57
2022-11-02T04:16:28.608Z,100299.25
2022-11-02T04:19:13.728Z,100299.52
2022-11-02T04:21:41.411Z,100300.54
2022-11-02T04:24:26.949Z,100305.02
2022-11-02T04:26:53.788Z,100298.85
2022-11-02T04:29:20.836Z,100301.21
2022-11-02T04:31:48.172Z,100298.98
2022-11-02T04:34:15.212Z,100299.35
2022-11-02T04:36:42.193Z,100299.23
2022-11-02T04:39:09.566Z,100305.57
2022-11-02T04:41:42.649Z,100304.54
2022-11-02T04:44:16.142Z,100303.81
2022-11-02T04:46:46.719Z,100307.70
2022-11-02T04:49:14.414Z,100304.91
2022-11-02T04:51:45.763Z,100302.00
2022-11-02T04:54:16.192Z,100299.55
2022-11-02T04:56:43.707Z,100301.83
2022-11-02T04:59:11.541Z,100302.38
2022-11-02T05:01:38.773Z,100304.13
2022-11-02T05:04:06.327Z,100303.38
2022-11-02T05:06:37.378Z,100307.73
2022-11-02T05:09:06.184Z,100307.92
2022-11-02T05:11:33.303Z,100309.13
2022-11-02T05:14:00.647Z,100311.48
2022-11-02T05:16:28.564Z,100314.17
2022-11-02T05:18:55.466Z,100319.16
2022-11-02T05:21:23.322Z,100320.38
2022-11-02T05:23:50.518Z,100320.32
2022-11-02T05:26:17.680Z,100319.92
2022-11-02T05:28:46.780Z,100326.84
2022-11-02T05:31:13.799Z,100325.52
2022-11-02T05:33:40.767Z,100325.95
2022-11-02T05:36:12.773Z,100324.27
2022-11-02T05:38:40.916Z,100330.05
2022-11-02T05:41:08.533Z,100330.33
2022-11-02T05:43:36.511Z,100333.45
2022-11-02T05:46:05.643Z,100333.98
2022-11-02T05:48:33.868Z,100340.29
2022-11-02T05:51:03.365Z,100342.23
2022-11-02T05:53:32.705Z,100342.79
2022-11-02T05:56:02.272Z,100347.96
2022-11-02T05:58:29.616Z,100354.75
2022-11-02T06:00:59.750Z,100357.79
2022-11-02T06:03:26.888Z,100352.15
2022-11-02T06:06:00.912Z,100357.13
2022-11-02T06:08:28.545Z,100354.95
2022-11-02T06:10:55.382Z,100354.32
2022-11-02T06:13:22.383Z,100356.63
2022-11-02T06:15:49.201Z,100361.08
2022-11-02T06:18:15.972Z,100366.55
2022-11-02T06:20:42.844Z,100367.83
2022-11-02T06:23:09.706Z,100369.43
2022-11-02T06:25:36.613Z,100369.27
2022-11-02T06:28:03.459Z,100373.81
2022-11-02T06:30:30.370Z,100380.13
2022-11-02T06:32:58.684Z,100384.72
2022-11-02T06:35:28.462Z,100384.07
2022-11-02T06:37:55.501Z,100386.84
2022-11-02T06:40:25.646Z,100387.08
2022-11-02T06:45:46.907Z,100392.20
2022-11-02T06:48:13.940Z,100391.89
2022-11-02T06:50:40.828Z,100392.84
2022-11-02T06:53:07.856Z,100392.20
2022-11-02T06:55:34.832Z,100389.90
2022-11-02T06:58:01.731Z,100392.02
2022-11-02T07:00:29.703Z,100391.59
2022-11-02T07:03:04.291Z,100393.40
2022-11-02T07:05:31.940Z,100395.25
2022-11-02T07:07:59.349Z,100393.25
2022-11-02T07:10:26.834Z,100396.83
2022-11-02T07:12:56.298Z,100396.13
2022-11-02T07:15:24.275Z,100393.36
2022-11-02T07:17:51.913Z,100396.05
2022-11-02T07:20:19.452Z,100396.31
2022-11-02T07:22:55.177Z,100402.77
2022-11-02T07:25:22.300Z,100401.56
2022-11-02T07:27:49.171Z,100399.52
2022-11-02T07:30:16.770Z,100400.59
2022-11-02T07:32:44.584Z,100401.08
2022-11-02T07:35:13.514Z,100394.82
2022-11-02T07:37:41.050Z,100393.18
2022-11-02T07:40:10.720Z,100394.60
2022-11-02T07:42:37.671Z,100393.61
2022-11-02T07:45:07.165Z,100393.38
2022-11-02T07:47:34.055Z,100391.52
2022-11-02T07:50:02.192Z,100392.52
2022-11-02T07:52:29.403Z,100390.31
2022-11-02T07:54:56.866Z,100387.91
2022-11-02T07:57:23.760Z,100386.35
2022-11-02T07:59:50.743Z,100390.95
2022-11-02T08:02:17.711Z,100392.09
2022-11-02T08:04:45.225Z,100387.30
2022-11-02T08:07:13.292Z,100391.98
2022-11-02T08:09:40.218Z,100391.52
2022-11-02T08:12:12.075Z,100395.11
2022-11-02T08:14:38.955Z,100392.83
2022-11-02T08:17:06.267Z,100387.08
2022-11-02T08:19:33.273Z,100387.48
2022-11-02T08:22:00.351Z,100392.13
2022-11-02T08:24:27.222Z,100389.05
2022-11-02T08:26:55.016Z,100387.98
2022-11-02T08:29:22.124Z,100390.66
2022-11-02T08:31:50.612Z,100393.34
2022-11-02T08:34:17.619Z,100385.30
2022-11-02T08:36:44.822Z,100386.02
2022-11-02T08:39:17.515Z,100387.84
2022-11-02T08:41:45.732Z,100384.91
2022-11-02T08:44:12.599Z,100384.48
2022-11-02T08:46:39.792Z,100385.06
2022-11-02T08:49:06.752Z,100390.19
2022-11-02T08:51:33.708Z,100390.02
2022-11-02T08:54:00.635Z,100390.80
2022-11-02T08:56:27.551Z,100390.06
2022-11-02T08:58:54.582Z,100387.45
2022-11-02T09:01:23.597Z,100394.73
2022-11-02T09:03:50.533Z,100394.69
2022-11-02T09:06:17.613Z,100398.80
2022-11-02T09:08:44.874Z,100397.00
2022-11-02T09:11:12.398Z,100392.86
2022-11-02T09:13:40.639Z,100391.94
2022-11-02T09:16:09.810Z,100391.16
2022-11-02T09:18:36.817Z,100392.48
2022-11-02T09:21:05.943Z,100391.77
2022-11-02T09:23:33.453Z,100390.05
2022-11-02T09:26:01.423Z,100384.76
2022-11-02T09:28:28.641Z,100385.65
2022-11-02T09:30:55.781Z,100392.38
2022-11-02T09:33:25.261Z,100393.74
2022-11-02T09:35:52.312Z,100394.27
2022-11-02T09:38:19.893Z,100394.58
2022-11-02T09:40:52.892Z,100395.53
2022-11-02T09:43:32.643Z,100398.55
2022-11-02T09:46:03.396Z,100396.55
2022-11-02T09:48:36.356Z,100396.56
2022-11-02T09:51:08.753Z,100393.73
2022-11-02T09:53:49.917Z,100396.45
2022-11-02T09:56:20.629Z,100401.11
2022-11-02T09:58:54.543Z,100397.94
2022-11-02T10:01:34.513Z,100397.70
2022-11-02T10:04:21.565Z,100395.95
2022-11-02T10:06:56.854Z,100396.14
2022-11-02T10:09:29.382Z,100401.85
2022-11-02T10:12:03.333Z,100402.76
2022-11-02T10:14:36.796Z,100400.64
2022-11-02T10:17:13.592Z,100400.57
2022-11-02T10:19:45.164Z,100400.92
2022-11-02T10:22:16.200Z,100402.95
2022-11-02T10:24:45.290Z,100402.38
2022-11-02T10:27:21.228Z,100405.79
2022-11-02T10:29:59.206Z,100402.45
2022-11-02T10:32:26.433Z,100394.88
2022-11-02T10:34:58.966Z,100397.45
2022-11-02T10:37:49.412Z,100398.43
2022-11-02T10:40:32.772Z,100397.41
2022-11-02T10:43:14.911Z,100398.11
2022-11-02T10:46:03.397Z,100400.09
2022-11-02T10:48:39.493Z,100400.94
2022-11-02T10:51:12.454Z,100400.29
2022-11-02T10:53:43.357Z,100404.52
2022-11-02T10:56:16.691Z,100404.31
2022-11-02T10:58:51.175Z,100402.25
2022-11-02T11:01:18.764Z,100405.40
2022-11-02T11:04:00.350Z,100407.98
2022-11-02T11:06:28.935Z,100403.23
2022-11-02T11:09:02.307Z,100406.39
2022-11-02T11:11:31.976Z,100405.55
2022-11-02T11:16:53.264Z,100404.73
2022-11-02T11:22:29.752Z,100401.10
2022-11-02T11:25:16.704Z,100406.17
2022-11-02T11:27:48.614Z,100393.05
2022-11-02T11:30:54.012Z,100395.70
2022-11-02T11:33:23.078Z,100397.84
2022-11-02T11:35:53.504Z,100390.80
2022-11-02T11:38:23.917Z,100389.84
2022-11-02T11:40:54.337Z,100382.92
2022-11-02T11:43:23.455Z,100384.34
2022-11-02T11:46:05.302Z,100385.48
2022-11-02T11:48:39.111Z,100390.05
2022-11-02T11:51:24.396Z,100393.63
2022-11-02T11:54:18.230Z,100390.27
2022-11-02T11:56:45.195Z,100390.63
2022-11-02T11:59:24.555Z,100395.80
2022-11-02T12:01:53.284Z,100389.69
2022-11-02T12:04:30.817Z,100393.75
2022-11-02T12:07:07.859Z,100384.02
2022-11-02T12:09:37.143Z,100380.70
2022-11-02T12:12:14.166Z,100379.15
2022-11-02T12:14:46.663Z,100377.81
2022-11-02T12:17:27.656Z,100373.98
2022-11-02T12:20:12.200Z,100378.28
2022-11-02T12:22:50.991Z,100371.94
2022-11-02T12:25:41.813Z,100370.42
2022-11-02T12:28:23.956Z,100366.81
2022-11-02T12:31:02.591Z,100363.48
2022-11-02T12:33:44.240Z,100358.63
2022-11-02T12:36:20.863Z,100363.52
2022-11-02T12:38:58.029Z,100357.27
2022-11-02T12:41:39.067Z,100355.95
2022-11-02T12:44:18.427Z,100356.96
2022-11-02T12:46:53.794Z,100351.42
2022-11-02T12:49:36.032Z,100351.01
2022-11-02T12:52:14.484Z,100352.29
2022-11-02T12:54:46.972Z,100347.71
2022-11-02T12:57:18.447Z,100350.52
2022-11-02T12:59:47.640Z,100348.64
2022-11-02T13:02:19.909Z,100350.24
2022-11-02T13:04:52.538Z,100348.43
2022-11-02T13:07:27.189Z,100350.57
2022-11-02T13:10:02.033Z,100350.82
2022-11-02T13:12:31.911Z,100344.39
2022-11-02T13:15:02.235Z,100347.27
2022-11-02T13:17:37.074Z,100348.26
2022-11-02T13:20:14.479Z,100352.22
2022-11-02T13:22:44.098Z,100351.05
2022-11-02T13:25:20.826Z,100349.57
2022-11-02T13:27:52.984Z,100351.77
2022-11-02T13:30:21.044Z,100355.13
2022-11-02T13:32:51.247Z,100359.79
2022-11-02T13:35:23.888Z,100359.52
2022-11-02T13:37:54.621Z,100364.39
2022-11-02T13:40:26.732Z,100369.21
2022-11-02T13:43:30.489Z,100373.38
2022-11-02T13:46:14.909Z,100376.58
2022-11-02T13:48:52.603Z,100374.80
2022-11-02T13:51:30.149Z,100377.89
2022-11-02T13:54:02.168Z,100377.85
2022-11-02T13:56:31.190Z,100384.39
2022-11-02T13:59:01.970Z,100390.74
2022-11-02T14:01:33.007Z,100387.17
2022-11-02T14:04:04.034Z,100389.00
2022-11-02T14:06:33.329Z,100384.55
2022-11-02T14:09:03.458Z,100384.79
2022-11-02T14:11:37.798Z,100390.11
2022-11-02T14:14:22.844Z,100392.44
2022-11-02T14:17:13.031Z,100392.64
2022-11-02T14:19:55.096Z,100390.31
2022-11-02T14:22:23.517Z,100388.50
2022-11-02T14:25:18.837Z,100380.69
2022-11-02T14:27:46.104Z,100381.08
2022-11-02T14:30:46.734Z,100380.48
2022-11-02T14:33:33.333Z,100383.89
2022-11-02T14:36:06.012Z,100381.64
2022-11-02T14:38:53.843Z,100380.21
2022-11-02T14:41:47.215Z,100379.03
2022-11-02T14:44:35.104Z,100380.03
2022-11-02T14:47:09.803Z,100382.50
2022-11-02T14:49:41.141Z,100380.91
2022-11-02T14:52:23.948Z,100378.60
2022-11-02T14:54:54.679Z,100378.21
2022-11-02T14:57:28.717Z,100382.84
2022-11-02T14:59:59.102Z,100384.82
2022-11-02T15:02:31.262Z,100380.78
2022-11-02T15:05:00.648Z,100378.89
2022-11-02T15:07:35.957Z,100376.25
2022-11-02T15:10:04.197Z,100377.14
2022-11-02T15:12:35.988Z,100376.55
2022-11-02T15:15:07.733Z,100381.58
2022-11-02T15:17:59.675Z,100383.65
2022-11-02T15:20:34.698Z,100387.23
2022-11-02T15:23:31.429Z,100388.05
2022-11-02T15:26:01.679Z,100386.94
2022-11-02T15:28:33.793Z,100388.45
2022-11-02T15:31:05.710Z,100395.75
2022-11-02T15:33:39.904Z,100395.24
2022-11-02T15:36:10.135Z,100396.91
2022-11-02T15:38:40.185Z,100399.10
2022-11-02T15:41:19.658Z,100407.78
2022-11-02T15:43:59.120Z,100406.39
2022-11-02T15:46:44.357Z,100409.41
2022-11-02T15:49:24.048Z,100412.91
2022-11-02T15:51:57.788Z,100416.45
2022-11-02T15:54:49.745Z,100419.33
2022-11-02T15:57:25.749Z,100422.32
2022-11-02T16:00:13.323Z,100424.84
2022-11-02T16:02:41.111Z,100426.34
2022-11-02T16:05:17.190Z,100425.64
2022-11-02T16:08:05.216Z,100429.39
2022-11-02T16:10:34.603Z,100435.30
2022-11-02T16:13:11.860Z,100431.74
2022-11-02T16:15:42.223Z,100433.45
2022-11-02T16:18:22.770Z,100432.58
2022-11-02T16:20:49.794Z,100433.02
2022-11-02T16:23:24.315Z,100431.00
2022-11-02T16:25:54.780Z,100431.41
2022-11-02T16:28:24.512Z,100431.97
2022-11-02T16:31:14.418Z,100430.11
2022-11-02T16:33:44.803Z,100433.45
2022-11-02T16:36:13.775Z,100434.80
2022-11-02T16:38:46.847Z,100435.23
2022-11-02T16:41:17.609Z,100440.24
2022-11-02T16:43:47.852Z,100442.08
2022-11-02T16:46:18.337Z,100440.70
2022-11-02T16:49:09.386Z,100440.60
2022-11-02T16:51:36.784Z,100442.44
2022-11-02T16:54:27.170Z,100444.48
2022-11-02T16:56:56.813Z,100448.63
2022-11-02T16:59:25.646Z,100450.80
2022-11-02T17:01:58.452Z,100453.83
2022-11-02T17:04:27.681Z,100452.54
2022-11-02T17:06:56.880Z,100455.02
2022-11-02T17:09:28.329Z,100458.23
2022-11-02T17:11:58.002Z,100459.73
2022-11-02T17:14:26.631Z,100463.87
2022-11-02T17:17:09.481Z,100468.62
2022-11-02T17:19:57.765Z,100468.80
2022-11-02T17:22:30.337Z,100465.33
2022-11-02T17:25:14.521Z,100466.81
2022-11-02T17:27:43.008Z,100467.67
2022-11-02T17:30:48.358Z,100464.73
2022-11-02T17:33:25.039Z,100463.17
2022-11-02T17:35:53.840Z,100464.63
2022-11-02T17:38:22.468Z,100469.61
2022-11-02T17:40:52.295Z,100470.20
2022-11-02T17:43:19.295Z,100466.53
2022-11-02T17:45:54.371Z,100461.95
2022-11-02T17:48:21.367Z,100460.98
2022-11-02T17:50:53.144Z,100459.31
2022-11-02T17:53:20.105Z,100461.73
2022-11-02T17:55:47.007Z,100460.55
2022-11-02T17:58:15.380Z,100461.71
2022-11-02T18:00:42.871Z,100460.45
2022-11-02T18:03:17.504Z,100462.20
2022-11-02T18:05:48.521Z,100459.30
2022-11-02T18:08:17.267Z,100459.20
2022-11-02T18:10:46.052Z,100457.64
2022-11-02T18:13:14.754Z,100457.81
2022-11-02T18:15:42.218Z,100455.73
2022-11-02T18:18:09.538Z,100454.29
2022-11-02T18:20:41.558Z,100455.41
2022-11-02T18:23:15.070Z,100451.48
2022-11-02T18:25:41.992Z,100452.67
2022-11-02T18:28:09.180Z,100456.30
2022-11-02T18:30:36.455Z,100458.61
2022-11-02T18:33:03.779Z,100458.48
2022-11-02T18:35:30.696Z,100458.89
2022-11-02T18:37:57.745Z,100464.34
2022-11-02T18:40:25.146Z,100464.17
2022-11-02T18:42:52.556Z,100461.70
2022-11-02T18:45:19.906Z,100459.25
2022-11-02T18:47:47.013Z,100461.52
2022-11-02T18:50:15.138Z,100459.02
2022-11-02T18:52:49.650Z,100463.20
2022-11-02T18:55:21.182Z,100459.02
2022-11-02T18:57:50.969Z,100455.54
2022-11-02T19:00:18.975Z,100457.67
2022-11-02T19:02:46.301Z,100461.96
2022-11-02T19:05:27.215Z,100457.98
2022-11-02T19:08:11.924Z,100459.73
2022-11-02T19:10:38.863Z,100459.88
2022-11-02T19:13:06.063Z,100457.27
2022-11-02T19:15:39.783Z,100462.65
2022-11-02T19:18:10.487Z,100461.94
2022-11-02T19:20:37.401Z,100463.73
2022-11-02T19:23:04.258Z,100461.67
2022-11-02T19:25:31.276Z,100465.60
2022-11-02T19:27:58.240Z,100466.98
2022-11-02T19:30:25.253Z,100481.78
2022-11-02T19:32:52.218Z,100484.34
2022-11-02T19:35:21.375Z,100491.23
2022-11-02T19:37:48.339Z,100495.11
2022-11-02T19:40:18.182Z,100501.52
2022-11-02T19:42:49.865Z,100500.64
2022-11-02T19:45:17.923Z,100501.48
2022-11-02T19:47:45.090Z,100499.77
2022-11-02T19:50:12.559Z,100501.17
2022-11-02T19:52:39.485Z,100497.58
2022-11-02T19:55:07.038Z,100506.69
2022-11-02T19:57:33.987Z,100504.15
2022-11-02T20:00:00.872Z,100510.40
2022-11-02T20:02:27.889Z,100513.16
2022-11-02T20:04:54.919Z,100507.01
2022-11-02T20:07:21.926Z,100508.17
2022-11-02T20:09:49.007Z,100515.76
2022-11-02T20:12:15.862Z,100516.72
2022-11-02T20:14:42.755Z,100520.16
2022-11-02T20:17:30.255Z,100526.96
2022-11-02T20:19:56.500Z,100527.69
2022-11-02T20:22:23.656Z,100522.64
2022-11-02T20:24:50.658Z,100529.66
2022-11-02T20:27:17.840Z,100529.84
2022-11-02T20:29:44.882Z,100528.80
2022-11-02T20:32:12.670Z,100525.48
2022-11-02T20:34:39.834Z,100524.44
2022-11-02T20:37:07.638Z,100525.42
2022-11-02T20:39:35.194Z,100527.83
2022-11-02T20:42:02.250Z,100532.31
2022-11-02T20:44:29.357Z,100533.80
2022-11-02T20:46:57.530Z,100527.71
2022-11-02T20:49:54.363Z,100529.11
2022-11-02T20:52:12.825Z,100535.85
2022-11-02T20:54:40.039Z,100531.34
2022-11-02T20:57:07.609Z,100536.86
2022-11-02T20:59:34.425Z,100538.22
2022-11-02T21:02:01.484Z,100538.31
2022-11-02T21:04:28.572Z,100536.03
2022-11-02T21:06:55.528Z,100533.75
2022-11-02T21:09:24.515Z,100539.05
2022-11-02T21:12:09.545Z,100533.26
2022-11-02T21:14:36.595Z,100539.31
2022-11-02T21:17:05.597Z,100530.29
2022-11-02T21:19:32.573Z,100531.50
2022-11-02T21:22:00.673Z,100531.21
2022-11-02T21:24:28.019Z,100533.34
2022-11-02T21:26:54.936Z,100534.30
2022-11-02T21:29:22.706Z,100537.85
2022-11-02T21:31:49.947Z,100542.80
2022-11-02T21:34:17.516Z,100539.29
2022-11-02T21:36:44.527Z,100540.41
2022-11-02T21:39:11.614Z,100540.51
2022-11-02T21:41:39.635Z,100540.44
2022-11-02T21:44:07.838Z,100540.35
2022-11-02T21:46:35.122Z,100536.25
2022-11-02T21:49:03.191Z,100533.21
2022-11-02T21:51:30.335Z,100533.52
2022-11-02T21:53:57.382Z,100532.98
2022-11-02T21:56:26.700Z,100536.58
2022-11-02T21:58:54.231Z,100545.38
2022-11-02T22:01:48.684Z,100547.71
2022-11-02T22:04:19.520Z,100551.46
2022-11-02T22:06:49.212Z,100552.09
2022-11-02T22:09:16.410Z,100558.81
2022-11-02T22:11:45.078Z,100554.61
2022-11-02T22:14:12.430Z,100555.89
2022-11-02T22:16:41.171Z,100557.02
2022-11-02T22:19:10.003Z,100553.81
2022-11-02T22:21:40.081Z,100552.71
2022-11-02T22:24:08.110Z,100555.35
2022-11-02T22:26:39.371Z,100552.63
2022-11-02T22:29:07.253Z,100552.48
2022-11-02T22:31:35.879Z,100552.14
2022-11-02T22:34:04.938Z,100550.95
2022-11-02T22:36:34.217Z,100552.34
2022-11-02T22:39:02.559Z,100552.34
2022-11-02T22:41:30.909Z,100554.76
2022-11-02T22:43:59.062Z,100556.00
2022-11-02T22:46:28.502Z,100563.15
2022-11-02T22:48:57.103Z,100561.64
2022-11-02T22:51:27.856Z,100557.77
2022-11-02T22:53:55.951Z,100562.50
2022-11-02T22:56:24.530Z,100566.62
2022-11-02T22:58:52.448Z,100571.07
2022-11-02T23:01:21.484Z,100571.34
2022-11-02T23:03:50.586Z,100572.14
2022-11-02T23:06:21.345Z,100580.56
2022-11-02T23:08:49.148Z,100580.05
2022-11-02T23:11:23.862Z,100582.23
2022-11-02T23:13:52.680Z,100587.93
2022-11-02T23:16:23.929Z,100588.41
2022-11-02T23:19:10.945Z,100586.23
2022-11-02T23:21:38.710Z,100591.69
2022-11-02T23:24:23.805Z,100594.58
2022-11-02T23:26:50.828Z,100594.83
2022-11-02T23:29:31.522Z,100600.52
2022-11-02T23:32:16.580Z,100600.80
2022-11-02T23:35:03.983Z,100598.38
2022-11-02T23:37:31.667Z,100597.52
2022-11-02T23:39:58.800Z,100599.74
2022-11-02T23:42:28.099Z,100595.18
2022-11-02T23:44:57.438Z,100593.05
2022-11-02T23:47:44.992Z,100591.06
2022-11-02T23:50:35.628Z,100591.72
2022-11-02T23:53:20.137Z,100590.31
2022-11-02T23:56:07.451Z,100590.73
2022-11-02T23:58:34.504Z,100594.08
